sensor_id;sensor_type;location;lat;lon;timestamp;P1;durP1;ratioP1;P2;durP2;ratioP2
71353;SDS011;59393;51.652;4.864;2023-01-16T00:01:59;2.97;;;1.20;;
71353;SDS011;59393;51.652;4.864;2023-01-16T00:04:26;7.75;;;2.60;;
71353;SDS011;59393;51.652;4.864;2023-01-16T00:06:52;5.32;;;1.80;;
71353;SDS011;59393;51.652;4.864;2023-01-16T00:09:18;2.50;;;1.25;;
71353;SDS011;59393;51.652;4.864;2023-01-16T00:11:44;3.20;;;1.20;;
71353;SDS011;59393;51.652;4.864;2023-01-16T00:14:10;6.10;;;2.08;;
71353;SDS011;59393;51.652;4.864;2023-01-16T00:16:36;6.00;;;1.70;;
71353;SDS011;59393;51.652;4.864;2023-01-16T00:19:02;6.10;;;2.03;;
71353;SDS011;59393;51.652;4.864;2023-01-16T00:21:28;4.63;;;1.77;;
71353;SDS011;59393;51.652;4.864;2023-01-16T00:23:55;6.37;;;1.23;;
71353;SDS011;59393;51.652;4.864;2023-01-16T00:26:22;9.05;;;1.58;;
71353;SDS011;59393;51.652;4.864;2023-01-16T00:28:48;4.97;;;1.67;;
71353;SDS011;59393;51.652;4.864;2023-01-16T00:31:14;6.68;;;1.88;;
71353;SDS011;59393;51.652;4.864;2023-01-16T00:33:40;4.78;;;1.40;;
71353;SDS011;59393;51.652;4.864;2023-01-16T00:36:07;2.63;;;1.05;;
71353;SDS011;59393;51.652;4.864;2023-01-16T00:38:33;4.40;;;1.02;;
71353;SDS011;59393;51.652;4.864;2023-01-16T00:40:59;4.90;;;0.93;;
71353;SDS011;59393;51.652;4.864;2023-01-16T00:43:25;11.65;;;1.08;;
71353;SDS011;59393;51.652;4.864;2023-01-16T00:45:51;6.60;;;1.17;;
71353;SDS011;59393;51.652;4.864;2023-01-16T00:48:17;5.90;;;0.85;;
71353;SDS011;59393;51.652;4.864;2023-01-16T00:50:43;3.28;;;1.10;;
71353;SDS011;59393;51.652;4.864;2023-01-16T00:53:09;8.52;;;1.20;;
71353;SDS011;59393;51.652;4.864;2023-01-16T00:55:35;3.75;;;1.02;;
71353;SDS011;59393;51.652;4.864;2023-01-16T00:58:04;3.57;;;1.00;;
71353;SDS011;59393;51.652;4.864;2023-01-16T01:00:30;5.07;;;0.80;;
71353;SDS011;59393;51.652;4.864;2023-01-16T01:02:57;7.45;;;1.20;;
71353;SDS011;59393;51.652;4.864;2023-01-16T01:05:23;4.93;;;0.82;;
71353;SDS011;59393;51.652;4.864;2023-01-16T01:07:49;2.53;;;0.90;;
71353;SDS011;59393;51.652;4.864;2023-01-16T01:10:15;4.27;;;1.10;;
71353;SDS011;59393;51.652;4.864;2023-01-16T01:12:41;7.53;;;1.42;;
71353;SDS011;59393;51.652;4.864;2023-01-16T01:15:07;2.88;;;0.82;;
71353;SDS011;59393;51.652;4.864;2023-01-16T01:17:33;5.30;;;0.82;;
71353;SDS011;59393;51.652;4.864;2023-01-16T01:19:59;3.10;;;0.37;;
71353;SDS011;59393;51.652;4.864;2023-01-16T01:22:25;4.60;;;0.90;;
71353;SDS011;59393;51.652;4.864;2023-01-16T01:24:51;3.70;;;0.90;;
71353;SDS011;59393;51.652;4.864;2023-01-16T01:27:18;6.15;;;0.90;;
71353;SDS011;59393;51.652;4.864;2023-01-16T01:29:44;4.40;;;0.90;;
71353;SDS011;59393;51.652;4.864;2023-01-16T01:32:10;1.90;;;0.67;;
71353;SDS011;59393;51.652;4.864;2023-01-16T01:34:36;6.75;;;1.10;;
71353;SDS011;59393;51.652;4.864;2023-01-16T01:37:03;5.47;;;1.00;;
71353;SDS011;59393;51.652;4.864;2023-01-16T01:39:29;11.10;;;1.40;;
71353;SDS011;59393;51.652;4.864;2023-01-16T01:41:55;6.43;;;0.93;;
71353;SDS011;59393;51.652;4.864;2023-01-16T01:44:48;5.82;;;1.40;;
71353;SDS011;59393;51.652;4.864;2023-01-16T01:47:15;5.85;;;1.13;;
71353;SDS011;59393;51.652;4.864;2023-01-16T01:49:42;3.35;;;1.00;;
71353;SDS011;59393;51.652;4.864;2023-01-16T01:52:08;3.92;;;0.88;;
71353;SDS011;59393;51.652;4.864;2023-01-16T01:54:37;6.57;;;1.03;;
71353;SDS011;59393;51.652;4.864;2023-01-16T01:57:05;5.15;;;0.75;;
71353;SDS011;59393;51.652;4.864;2023-01-16T01:59:33;3.25;;;0.75;;
71353;SDS011;59393;51.652;4.864;2023-01-16T02:02:01;8.43;;;1.00;;
71353;SDS011;59393;51.652;4.864;2023-01-16T02:04:29;5.72;;;0.70;;
71353;SDS011;59393;51.652;4.864;2023-01-16T02:06:57;6.17;;;0.80;;
71353;SDS011;59393;51.652;4.864;2023-01-16T02:09:25;2.38;;;1.17;;
71353;SDS011;59393;51.652;4.864;2023-01-16T02:11:55;6.35;;;1.00;;
71353;SDS011;59393;51.652;4.864;2023-01-16T02:14:22;5.93;;;0.80;;
71353;SDS011;59393;51.652;4.864;2023-01-16T02:16:51;7.07;;;0.80;;
71353;SDS011;59393;51.652;4.864;2023-01-16T02:19:44;8.90;;;0.60;;
71353;SDS011;59393;51.652;4.864;2023-01-16T02:24:51;5.72;;;0.65;;
71353;SDS011;59393;51.652;4.864;2023-01-16T02:27:39;9.07;;;0.95;;
71353;SDS011;59393;51.652;4.864;2023-01-16T02:30:14;2.55;;;0.60;;
71353;SDS011;59393;51.652;4.864;2023-01-16T02:32:48;3.23;;;0.77;;
71353;SDS011;59393;51.652;4.864;2023-01-16T02:37:53;2.85;;;0.95;;
71353;SDS011;59393;51.652;4.864;2023-01-16T02:45:35;4.82;;;0.98;;
71353;SDS011;59393;51.652;4.864;2023-01-16T02:50:28;6.65;;;0.63;;
71353;SDS011;59393;51.652;4.864;2023-01-16T02:52:59;4.68;;;0.70;;
71353;SDS011;59393;51.652;4.864;2023-01-16T02:55:46;7.33;;;0.90;;
71353;SDS011;59393;51.652;4.864;2023-01-16T02:58:13;3.95;;;0.70;;
71353;SDS011;59393;51.652;4.864;2023-01-16T03:00:50;10.75;;;1.02;;
71353;SDS011;59393;51.652;4.864;2023-01-16T03:04:03;5.07;;;0.57;;
71353;SDS011;59393;51.652;4.864;2023-01-16T03:11:19;6.03;;;1.05;;
71353;SDS011;59393;51.652;4.864;2023-01-16T03:24:07;6.53;;;1.17;;
71353;SDS011;59393;51.652;4.864;2023-01-16T03:26:36;4.63;;;0.70;;
71353;SDS011;59393;51.652;4.864;2023-01-16T03:31:40;3.75;;;0.50;;
71353;SDS011;59393;51.652;4.864;2023-01-16T03:36:44;2.90;;;0.60;;
71353;SDS011;59393;51.652;4.864;2023-01-16T03:39:12;8.10;;;0.90;;
71353;SDS011;59393;51.652;4.864;2023-01-16T03:41:40;3.22;;;0.65;;
71353;SDS011;59393;51.652;4.864;2023-01-16T03:44:08;4.30;;;0.80;;
71353;SDS011;59393;51.652;4.864;2023-01-16T03:46:40;7.07;;;0.90;;
71353;SDS011;59393;51.652;4.864;2023-01-16T03:49:09;7.57;;;1.15;;
71353;SDS011;59393;51.652;4.864;2023-01-16T03:51:42;2.95;;;0.90;;
71353;SDS011;59393;51.652;4.864;2023-01-16T03:57:00;3.70;;;0.73;;
71353;SDS011;59393;51.652;4.864;2023-01-16T03:59:29;4.15;;;0.75;;
71353;SDS011;59393;51.652;4.864;2023-01-16T04:02:00;4.85;;;0.57;;
71353;SDS011;59393;51.652;4.864;2023-01-16T04:04:34;1.85;;;0.50;;
71353;SDS011;59393;51.652;4.864;2023-01-16T04:07:19;3.80;;;0.82;;
71353;SDS011;59393;51.652;4.864;2023-01-16T04:09:52;4.33;;;0.60;;
71353;SDS011;59393;51.652;4.864;2023-01-16T04:12:20;4.85;;;0.70;;
71353;SDS011;59393;51.652;4.864;2023-01-16T04:14:48;2.60;;;0.60;;
71353;SDS011;59393;51.652;4.864;2023-01-16T04:17:15;3.78;;;0.70;;
71353;SDS011;59393;51.652;4.864;2023-01-16T04:19:41;5.32;;;0.80;;
71353;SDS011;59393;51.652;4.864;2023-01-16T04:22:09;6.97;;;0.90;;
71353;SDS011;59393;51.652;4.864;2023-01-16T04:24:44;4.82;;;0.70;;
71353;SDS011;59393;51.652;4.864;2023-01-16T04:27:10;8.25;;;0.88;;
71353;SDS011;59393;51.652;4.864;2023-01-16T04:29:36;5.07;;;1.33;;
71353;SDS011;59393;51.652;4.864;2023-01-16T04:32:02;10.82;;;1.80;;
71353;SDS011;59393;51.652;4.864;2023-01-16T04:34:28;11.70;;;1.33;;
71353;SDS011;59393;51.652;4.864;2023-01-16T04:36:54;7.05;;;1.02;;
71353;SDS011;59393;51.652;4.864;2023-01-16T04:39:20;11.65;;;1.52;;
71353;SDS011;59393;51.652;4.864;2023-01-16T04:41:46;8.90;;;0.93;;
71353;SDS011;59393;51.652;4.864;2023-01-16T04:44:15;11.52;;;1.55;;
71353;SDS011;59393;51.652;4.864;2023-01-16T04:46:41;3.17;;;0.57;;
71353;SDS011;59393;51.652;4.864;2023-01-16T04:49:07;10.75;;;1.25;;
71353;SDS011;59393;51.652;4.864;2023-01-16T04:51:34;7.65;;;1.50;;
71353;SDS011;59393;51.652;4.864;2023-01-16T04:54:00;11.65;;;1.17;;
71353;SDS011;59393;51.652;4.864;2023-01-16T04:56:27;6.07;;;1.10;;
71353;SDS011;59393;51.652;4.864;2023-01-16T04:58:53;5.50;;;1.07;;
71353;SDS011;59393;51.652;4.864;2023-01-16T05:01:19;7.00;;;0.93;;
71353;SDS011;59393;51.652;4.864;2023-01-16T05:03:45;8.02;;;0.90;;
71353;SDS011;59393;51.652;4.864;2023-01-16T05:06:11;8.32;;;1.20;;
71353;SDS011;59393;51.652;4.864;2023-01-16T05:08:37;5.15;;;0.70;;
71353;SDS011;59393;51.652;4.864;2023-01-16T05:11:03;8.03;;;1.13;;
71353;SDS011;59393;51.652;4.864;2023-01-16T05:13:29;7.43;;;0.88;;
71353;SDS011;59393;51.652;4.864;2023-01-16T05:15:55;5.53;;;0.90;;
71353;SDS011;59393;51.652;4.864;2023-01-16T05:18:22;8.00;;;0.88;;
71353;SDS011;59393;51.652;4.864;2023-01-16T05:20:48;11.40;;;1.10;;
71353;SDS011;59393;51.652;4.864;2023-01-16T05:23:14;11.80;;;1.08;;
71353;SDS011;59393;51.652;4.864;2023-01-16T05:25:40;6.57;;;1.10;;
71353;SDS011;59393;51.652;4.864;2023-01-16T05:28:06;8.25;;;0.80;;
71353;SDS011;59393;51.652;4.864;2023-01-16T05:30:33;5.53;;;0.80;;
71353;SDS011;59393;51.652;4.864;2023-01-16T05:32:59;8.13;;;1.23;;
71353;SDS011;59393;51.652;4.864;2023-01-16T05:35:27;3.55;;;0.68;;
71353;SDS011;59393;51.652;4.864;2023-01-16T05:37:53;5.72;;;1.05;;
71353;SDS011;59393;51.652;4.864;2023-01-16T05:40:19;7.72;;;0.90;;
71353;SDS011;59393;51.652;4.864;2023-01-16T05:42:45;4.45;;;1.45;;
71353;SDS011;59393;51.652;4.864;2023-01-16T05:45:13;5.07;;;0.50;;
71353;SDS011;59393;51.652;4.864;2023-01-16T05:47:40;4.35;;;0.95;;
71353;SDS011;59393;51.652;4.864;2023-01-16T05:50:06;6.32;;;1.00;;
71353;SDS011;59393;51.652;4.864;2023-01-16T05:52:32;5.18;;;0.90;;
71353;SDS011;59393;51.652;4.864;2023-01-16T05:54:58;2.57;;;0.67;;
71353;SDS011;59393;51.652;4.864;2023-01-16T05:57:24;7.15;;;1.23;;
71353;SDS011;59393;51.652;4.864;2023-01-16T05:59:50;4.78;;;0.90;;
71353;SDS011;59393;51.652;4.864;2023-01-16T06:02:17;3.97;;;0.75;;
71353;SDS011;59393;51.652;4.864;2023-01-16T06:04:43;9.13;;;0.70;;
71353;SDS011;59393;51.652;4.864;2023-01-16T06:07:10;7.93;;;1.03;;
71353;SDS011;59393;51.652;4.864;2023-01-16T06:09:36;7.28;;;1.15;;
71353;SDS011;59393;51.652;4.864;2023-01-16T06:12:02;8.15;;;1.30;;
71353;SDS011;59393;51.652;4.864;2023-01-16T06:14:28;4.63;;;0.85;;
71353;SDS011;59393;51.652;4.864;2023-01-16T06:16:54;3.83;;;1.05;;
71353;SDS011;59393;51.652;4.864;2023-01-16T06:19:20;9.87;;;1.07;;
71353;SDS011;59393;51.652;4.864;2023-01-16T06:21:46;4.75;;;0.52;;
71353;SDS011;59393;51.652;4.864;2023-01-16T06:24:12;10.35;;;1.17;;
71353;SDS011;59393;51.652;4.864;2023-01-16T06:26:38;6.28;;;0.80;;
71353;SDS011;59393;51.652;4.864;2023-01-16T06:29:04;5.38;;;0.88;;
71353;SDS011;59393;51.652;4.864;2023-01-16T06:31:49;5.60;;;0.60;;
71353;SDS011;59393;51.652;4.864;2023-01-16T06:34:16;5.95;;;0.75;;
71353;SDS011;59393;51.652;4.864;2023-01-16T06:36:42;10.02;;;1.27;;
71353;SDS011;59393;51.652;4.864;2023-01-16T06:39:10;3.67;;;1.30;;
71353;SDS011;59393;51.652;4.864;2023-01-16T06:41:37;2.83;;;0.43;;
71353;SDS011;59393;51.652;4.864;2023-01-16T06:44:03;5.30;;;0.87;;
71353;SDS011;59393;51.652;4.864;2023-01-16T06:46:29;5.90;;;0.60;;
71353;SDS011;59393;51.652;4.864;2023-01-16T06:48:55;5.45;;;0.68;;
71353;SDS011;59393;51.652;4.864;2023-01-16T06:51:21;6.90;;;0.90;;
71353;SDS011;59393;51.652;4.864;2023-01-16T06:53:47;6.70;;;1.10;;
71353;SDS011;59393;51.652;4.864;2023-01-16T06:56:13;6.78;;;0.93;;
71353;SDS011;59393;51.652;4.864;2023-01-16T06:58:39;4.53;;;0.93;;
71353;SDS011;59393;51.652;4.864;2023-01-16T07:01:05;4.10;;;0.47;;
71353;SDS011;59393;51.652;4.864;2023-01-16T07:03:32;8.35;;;1.10;;
71353;SDS011;59393;51.652;4.864;2023-01-16T07:05:58;9.30;;;0.40;;
71353;SDS011;59393;51.652;4.864;2023-01-16T07:08:24;4.15;;;0.90;;
71353;SDS011;59393;51.652;4.864;2023-01-16T07:10:50;4.43;;;0.70;;
71353;SDS011;59393;51.652;4.864;2023-01-16T07:13:16;4.38;;;0.35;;
71353;SDS011;59393;51.652;4.864;2023-01-16T07:15:45;4.57;;;0.90;;
71353;SDS011;59393;51.652;4.864;2023-01-16T07:18:30;3.63;;;0.40;;
71353;SDS011;59393;51.652;4.864;2023-01-16T07:21:34;7.90;;;1.50;;
71353;SDS011;59393;51.652;4.864;2023-01-16T07:24:20;2.22;;;0.52;;
71353;SDS011;59393;51.652;4.864;2023-01-16T07:26:48;5.28;;;0.75;;
71353;SDS011;59393;51.652;4.864;2023-01-16T07:29:15;3.30;;;0.60;;
71353;SDS011;59393;51.652;4.864;2023-01-16T07:31:41;9.70;;;0.70;;
71353;SDS011;59393;51.652;4.864;2023-01-16T07:34:08;2.78;;;0.60;;
71353;SDS011;59393;51.652;4.864;2023-01-16T07:36:34;2.35;;;0.50;;
71353;SDS011;59393;51.652;4.864;2023-01-16T07:39:00;4.53;;;0.70;;
71353;SDS011;59393;51.652;4.864;2023-01-16T07:41:26;7.43;;;1.60;;
71353;SDS011;59393;51.652;4.864;2023-01-16T07:43:52;5.65;;;0.60;;
71353;SDS011;59393;51.652;4.864;2023-01-16T07:46:18;2.47;;;0.85;;
71353;SDS011;59393;51.652;4.864;2023-01-16T07:48:44;4.55;;;0.60;;
71353;SDS011;59393;51.652;4.864;2023-01-16T07:51:10;4.93;;;1.10;;
71353;SDS011;59393;51.652;4.864;2023-01-16T07:53:36;6.10;;;0.70;;
71353;SDS011;59393;51.652;4.864;2023-01-16T07:56:02;1.95;;;0.35;;
71353;SDS011;59393;51.652;4.864;2023-01-16T07:58:28;1.75;;;0.40;;
71353;SDS011;59393;51.652;4.864;2023-01-16T08:00:55;4.80;;;1.00;;
71353;SDS011;59393;51.652;4.864;2023-01-16T08:03:21;3.80;;;0.77;;
71353;SDS011;59393;51.652;4.864;2023-01-16T08:05:48;3.57;;;0.70;;
71353;SDS011;59393;51.652;4.864;2023-01-16T08:08:17;7.80;;;0.90;;
71353;SDS011;59393;51.652;4.864;2023-01-16T08:10:43;4.38;;;0.80;;
71353;SDS011;59393;51.652;4.864;2023-01-16T08:13:09;2.83;;;0.70;;
71353;SDS011;59393;51.652;4.864;2023-01-16T08:15:35;2.45;;;0.70;;
71353;SDS011;59393;51.652;4.864;2023-01-16T08:18:01;3.73;;;0.67;;
71353;SDS011;59393;51.652;4.864;2023-01-16T08:20:27;2.28;;;0.60;;
71353;SDS011;59393;51.652;4.864;2023-01-16T08:22:53;2.65;;;0.50;;
71353;SDS011;59393;51.652;4.864;2023-01-16T08:25:22;4.10;;;0.73;;
71353;SDS011;59393;51.652;4.864;2023-01-16T08:27:48;9.37;;;0.97;;
71353;SDS011;59393;51.652;4.864;2023-01-16T08:30:14;5.55;;;0.93;;
71353;SDS011;59393;51.652;4.864;2023-01-16T08:32:41;3.63;;;0.77;;
71353;SDS011;59393;51.652;4.864;2023-01-16T08:35:07;6.35;;;0.80;;
71353;SDS011;59393;51.652;4.864;2023-01-16T08:37:34;7.93;;;1.08;;
71353;SDS011;59393;51.652;4.864;2023-01-16T08:40:00;5.17;;;0.90;;
71353;SDS011;59393;51.652;4.864;2023-01-16T08:42:26;1.95;;;0.70;;
71353;SDS011;59393;51.652;4.864;2023-01-16T08:45:13;3.65;;;0.90;;
71353;SDS011;59393;51.652;4.864;2023-01-16T08:47:58;4.13;;;0.95;;
71353;SDS011;59393;51.652;4.864;2023-01-16T08:50:44;4.00;;;0.90;;
71353;SDS011;59393;51.652;4.864;2023-01-16T08:53:30;5.13;;;0.73;;
71353;SDS011;59393;51.652;4.864;2023-01-16T08:55:55;5.28;;;1.00;;
71353;SDS011;59393;51.652;4.864;2023-01-16T08:58:22;2.85;;;0.90;;
71353;SDS011;59393;51.652;4.864;2023-01-16T09:00:48;4.93;;;0.80;;
71353;SDS011;59393;51.652;4.864;2023-01-16T09:03:14;1.55;;;0.60;;
71353;SDS011;59393;51.652;4.864;2023-01-16T09:05:42;1.70;;;0.50;;
71353;SDS011;59393;51.652;4.864;2023-01-16T09:08:08;2.25;;;0.63;;
71353;SDS011;59393;51.652;4.864;2023-01-16T09:10:34;3.97;;;0.85;;
71353;SDS011;59393;51.652;4.864;2023-01-16T09:13:00;2.15;;;0.65;;
71353;SDS011;59393;51.652;4.864;2023-01-16T09:15:44;3.83;;;0.83;;
71353;SDS011;59393;51.652;4.864;2023-01-16T09:18:10;4.03;;;0.68;;
71353;SDS011;59393;51.652;4.864;2023-01-16T09:20:36;3.60;;;0.77;;
71353;SDS011;59393;51.652;4.864;2023-01-16T09:23:03;5.60;;;0.85;;
71353;SDS011;59393;51.652;4.864;2023-01-16T09:25:29;3.60;;;0.90;;
71353;SDS011;59393;51.652;4.864;2023-01-16T09:27:56;2.45;;;0.85;;
71353;SDS011;59393;51.652;4.864;2023-01-16T09:30:24;3.38;;;0.80;;
71353;SDS011;59393;51.652;4.864;2023-01-16T09:32:50;4.10;;;0.70;;
71353;SDS011;59393;51.652;4.864;2023-01-16T09:35:16;5.25;;;1.20;;
71353;SDS011;59393;51.652;4.864;2023-01-16T09:37:42;2.50;;;0.70;;
71353;SDS011;59393;51.652;4.864;2023-01-16T09:40:13;2.83;;;0.60;;
71353;SDS011;59393;51.652;4.864;2023-01-16T09:42:43;1.85;;;0.70;;
71353;SDS011;59393;51.652;4.864;2023-01-16T09:45:32;1.67;;;0.60;;
71353;SDS011;59393;51.652;4.864;2023-01-16T09:48:00;1.30;;;0.50;;
71353;SDS011;59393;51.652;4.864;2023-01-16T09:50:34;1.80;;;0.50;;
71353;SDS011;59393;51.652;4.864;2023-01-16T09:53:02;2.40;;;0.60;;
71353;SDS011;59393;51.652;4.864;2023-01-16T09:55:48;2.53;;;0.65;;
71353;SDS011;59393;51.652;4.864;2023-01-16T09:58:33;0.68;;;0.28;;
71353;SDS011;59393;51.652;4.864;2023-01-16T10:01:01;1.35;;;0.47;;
71353;SDS011;59393;51.652;4.864;2023-01-16T10:03:27;1.43;;;0.30;;
71353;SDS011;59393;51.652;4.864;2023-01-16T10:06:15;1.95;;;0.40;;
71353;SDS011;59393;51.652;4.864;2023-01-16T10:16:30;2.33;;;0.60;;
71353;SDS011;59393;51.652;4.864;2023-01-16T10:26:27;1.20;;;0.30;;
71353;SDS011;59393;51.652;4.864;2023-01-16T10:34:05;1.40;;;0.50;;
71353;SDS011;59393;51.652;4.864;2023-01-16T10:36:35;1.55;;;0.40;;
71353;SDS011;59393;51.652;4.864;2023-01-16T10:39:02;1.20;;;0.40;;
71353;SDS011;59393;51.652;4.864;2023-01-16T10:41:34;3.43;;;0.40;;
71353;SDS011;59393;51.652;4.864;2023-01-16T10:44:26;1.60;;;0.35;;
71353;SDS011;59393;51.652;4.864;2023-01-16T10:47:13;1.90;;;0.50;;
71353;SDS011;59393;51.652;4.864;2023-01-16T10:49:58;1.88;;;0.43;;
71353;SDS011;59393;51.652;4.864;2023-01-16T10:52:24;1.75;;;0.50;;
71353;SDS011;59393;51.652;4.864;2023-01-16T10:54:51;1.97;;;0.60;;
71353;SDS011;59393;51.652;4.864;2023-01-16T10:57:19;3.40;;;0.68;;
71353;SDS011;59393;51.652;4.864;2023-01-16T10:59:45;0.90;;;0.40;;
71353;SDS011;59393;51.652;4.864;2023-01-16T11:02:19;1.27;;;0.40;;
71353;SDS011;59393;51.652;4.864;2023-01-16T11:04:50;0.93;;;0.40;;
71353;SDS011;59393;51.652;4.864;2023-01-16T11:07:19;2.80;;;0.87;;
71353;SDS011;59393;51.652;4.864;2023-01-16T11:09:45;5.07;;;0.47;;
71353;SDS011;59393;51.652;4.864;2023-01-16T11:12:18;1.20;;;0.40;;
71353;SDS011;59393;51.652;4.864;2023-01-16T11:15:04;1.15;;;0.40;;
71353;SDS011;59393;51.652;4.864;2023-01-16T11:17:53;2.88;;;0.70;;
71353;SDS011;59393;51.652;4.864;2023-01-16T11:20:38;3.40;;;0.40;;
71353;SDS011;59393;51.652;4.864;2023-01-16T11:23:18;1.45;;;0.40;;
71353;SDS011;59393;51.652;4.864;2023-01-16T11:25:45;1.40;;;0.50;;
71353;SDS011;59393;51.652;4.864;2023-01-16T11:28:12;1.20;;;0.43;;
71353;SDS011;59393;51.652;4.864;2023-01-16T11:30:43;1.77;;;0.40;;
71353;SDS011;59393;51.652;4.864;2023-01-16T11:33:17;1.80;;;0.57;;
71353;SDS011;59393;51.652;4.864;2023-01-16T11:35:50;1.27;;;0.50;;
71353;SDS011;59393;51.652;4.864;2023-01-16T11:38:17;1.25;;;0.40;;
71353;SDS011;59393;51.652;4.864;2023-01-16T11:40:44;2.17;;;0.47;;
71353;SDS011;59393;51.652;4.864;2023-01-16T11:43:15;2.38;;;0.50;;
71353;SDS011;59393;51.652;4.864;2023-01-16T11:46:04;2.20;;;0.50;;
71353;SDS011;59393;51.652;4.864;2023-01-16T11:51:03;3.35;;;0.65;;
71353;SDS011;59393;51.652;4.864;2023-01-16T11:53:32;2.78;;;0.63;;
71353;SDS011;59393;51.652;4.864;2023-01-16T11:58:34;2.20;;;0.63;;
71353;SDS011;59393;51.652;4.864;2023-01-16T12:03:52;1.23;;;0.40;;
71353;SDS011;59393;51.652;4.864;2023-01-16T12:11:37;2.93;;;0.40;;
71353;SDS011;59393;51.652;4.864;2023-01-16T12:14:20;0.88;;;0.40;;
71353;SDS011;59393;51.652;4.864;2023-01-16T12:17:04;1.98;;;0.60;;
71353;SDS011;59393;51.652;4.864;2023-01-16T12:19:44;4.88;;;0.45;;
71353;SDS011;59393;51.652;4.864;2023-01-16T12:25:00;2.00;;;0.47;;
71353;SDS011;59393;51.652;4.864;2023-01-16T12:30:17;2.80;;;0.70;;
71353;SDS011;59393;51.652;4.864;2023-01-16T12:35:59;1.48;;;0.50;;
71353;SDS011;59393;51.652;4.864;2023-01-16T12:41:17;3.67;;;0.68;;
71353;SDS011;59393;51.652;4.864;2023-01-16T12:49:04;4.07;;;1.27;;
71353;SDS011;59393;51.652;4.864;2023-01-16T12:51:35;2.27;;;0.70;;
71353;SDS011;59393;51.652;4.864;2023-01-16T12:56:43;2.22;;;0.60;;
71353;SDS011;59393;51.652;4.864;2023-01-16T12:59:16;2.10;;;0.60;;
71353;SDS011;59393;51.652;4.864;2023-01-16T13:01:44;1.92;;;0.60;;
71353;SDS011;59393;51.652;4.864;2023-01-16T13:04:16;6.10;;;0.90;;
71353;SDS011;59393;51.652;4.864;2023-01-16T13:06:52;3.28;;;0.80;;
71353;SDS011;59393;51.652;4.864;2023-01-16T13:12:05;2.80;;;0.70;;
71353;SDS011;59393;51.652;4.864;2023-01-16T13:14:55;1.45;;;0.50;;
71353;SDS011;59393;51.652;4.864;2023-01-16T13:17:25;1.20;;;0.40;;
71353;SDS011;59393;51.652;4.864;2023-01-16T13:19:54;3.28;;;0.60;;
71353;SDS011;59393;51.652;4.864;2023-01-16T13:27:16;1.27;;;0.45;;
71353;SDS011;59393;51.652;4.864;2023-01-16T13:29:47;1.30;;;0.40;;
71353;SDS011;59393;51.652;4.864;2023-01-16T13:32:19;1.15;;;0.30;;
71353;SDS011;59393;51.652;4.864;2023-01-16T13:34:49;1.13;;;0.30;;
71353;SDS011;59393;51.652;4.864;2023-01-16T13:37:32;0.50;;;0.20;;
71353;SDS011;59393;51.652;4.864;2023-01-16T13:42:28;1.27;;;0.30;;
71353;SDS011;59393;51.652;4.864;2023-01-16T13:44:59;0.90;;;0.20;;
71353;SDS011;59393;51.652;4.864;2023-01-16T13:47:44;1.38;;;0.40;;
71353;SDS011;59393;51.652;4.864;2023-01-16T13:50:28;0.82;;;0.35;;
71353;SDS011;59393;51.652;4.864;2023-01-16T13:53:03;1.10;;;0.32;;
71353;SDS011;59393;51.652;4.864;2023-01-16T13:55:30;0.57;;;0.20;;
71353;SDS011;59393;51.652;4.864;2023-01-16T13:58:07;0.63;;;0.28;;
71353;SDS011;59393;51.652;4.864;2023-01-16T14:00:34;1.13;;;0.32;;
71353;SDS011;59393;51.652;4.864;2023-01-16T14:03:03;0.47;;;0.30;;
71353;SDS011;59393;51.652;4.864;2023-01-16T14:05:43;0.47;;;0.30;;
71353;SDS011;59393;51.652;4.864;2023-01-16T14:11:03;1.65;;;0.40;;
71353;SDS011;59393;51.652;4.864;2023-01-16T14:13:34;1.48;;;0.70;;
71353;SDS011;59393;51.652;4.864;2023-01-16T14:23:54;6.95;;;0.75;;
71353;SDS011;59393;51.652;4.864;2023-01-16T14:34:32;2.00;;;0.50;;
71353;SDS011;59393;51.652;4.864;2023-01-16T14:37:02;2.80;;;0.50;;
71353;SDS011;59393;51.652;4.864;2023-01-16T14:39:30;1.23;;;0.50;;
71353;SDS011;59393;51.652;4.864;2023-01-16T14:41:59;2.00;;;0.60;;
71353;SDS011;59393;51.652;4.864;2023-01-16T14:48:31;1.93;;;0.50;;
71353;SDS011;59393;51.652;4.864;2023-01-16T14:51:54;1.42;;;0.52;;
71353;SDS011;59393;51.652;4.864;2023-01-16T14:59:37;1.58;;;0.60;;
71353;SDS011;59393;51.652;4.864;2023-01-16T15:02:14;2.53;;;0.70;;
71353;SDS011;59393;51.652;4.864;2023-01-16T15:04:45;1.67;;;0.60;;
71353;SDS011;59393;51.652;4.864;2023-01-16T15:07:16;3.40;;;0.80;;
71353;SDS011;59393;51.652;4.864;2023-01-16T15:09:47;2.08;;;0.75;;
71353;SDS011;59393;51.652;4.864;2023-01-16T15:12:14;2.35;;;0.80;;
71353;SDS011;59393;51.652;4.864;2023-01-16T15:14:53;4.40;;;0.90;;
71353;SDS011;59393;51.652;4.864;2023-01-16T15:22:58;3.25;;;1.13;;
71353;SDS011;59393;51.652;4.864;2023-01-16T15:28:06;4.63;;;1.53;;
71353;SDS011;59393;51.652;4.864;2023-01-16T15:30:34;3.17;;;1.02;;
71353;SDS011;59393;51.652;4.864;2023-01-16T15:33:00;2.58;;;1.00;;
71353;SDS011;59393;51.652;4.864;2023-01-16T15:35:54;3.90;;;1.38;;
71353;SDS011;59393;51.652;4.864;2023-01-16T15:38:21;2.95;;;1.15;;
71353;SDS011;59393;51.652;4.864;2023-01-16T15:40:50;4.50;;;1.60;;
71353;SDS011;59393;51.652;4.864;2023-01-16T15:43:16;3.15;;;1.48;;
71353;SDS011;59393;51.652;4.864;2023-01-16T15:49:08;4.28;;;1.40;;
71353;SDS011;59393;51.652;4.864;2023-01-16T15:51:37;4.10;;;1.50;;
71353;SDS011;59393;51.652;4.864;2023-01-16T15:54:03;3.40;;;1.30;;
71353;SDS011;59393;51.652;4.864;2023-01-16T15:56:33;4.55;;;1.58;;
71353;SDS011;59393;51.652;4.864;2023-01-16T15:59:00;5.10;;;1.58;;
71353;SDS011;59393;51.652;4.864;2023-01-16T16:01:33;4.95;;;1.70;;
71353;SDS011;59393;51.652;4.864;2023-01-16T16:04:00;6.40;;;2.77;;
71353;SDS011;59393;51.652;4.864;2023-01-16T16:06:27;7.55;;;3.28;;
71353;SDS011;59393;51.652;4.864;2023-01-16T16:08:55;11.57;;;4.05;;
71353;SDS011;59393;51.652;4.864;2023-01-16T16:11:25;7.30;;;2.70;;
71353;SDS011;59393;51.652;4.864;2023-01-16T16:17:05;8.00;;;2.60;;
71353;SDS011;59393;51.652;4.864;2023-01-16T16:22:46;3.63;;;1.60;;
71353;SDS011;59393;51.652;4.864;2023-01-16T16:27:47;3.13;;;1.08;;
71353;SDS011;59393;51.652;4.864;2023-01-16T16:30:16;2.33;;;0.90;;
71353;SDS011;59393;51.652;4.864;2023-01-16T16:32:45;4.22;;;0.77;;
71353;SDS011;59393;51.652;4.864;2023-01-16T16:35:20;1.60;;;0.60;;
71353;SDS011;59393;51.652;4.864;2023-01-16T16:37:47;3.05;;;0.40;;
71353;SDS011;59393;51.652;4.864;2023-01-16T16:40:14;3.10;;;0.50;;
71353;SDS011;59393;51.652;4.864;2023-01-16T16:47:39;0.57;;;0.32;;
71353;SDS011;59393;51.652;4.864;2023-01-16T16:53:05;1.05;;;0.30;;
71353;SDS011;59393;51.652;4.864;2023-01-16T16:55:35;1.33;;;0.30;;
71353;SDS011;59393;51.652;4.864;2023-01-16T16:58:05;1.55;;;0.50;;
71353;SDS011;59393;51.652;4.864;2023-01-16T17:00:37;2.90;;;0.50;;
71353;SDS011;59393;51.652;4.864;2023-01-16T17:03:16;2.63;;;0.73;;
71353;SDS011;59393;51.652;4.864;2023-01-16T17:05:43;2.45;;;0.68;;
71353;SDS011;59393;51.652;4.864;2023-01-16T17:08:13;1.87;;;0.63;;
71353;SDS011;59393;51.652;4.864;2023-01-16T17:10:40;2.25;;;0.82;;
71353;SDS011;59393;51.652;4.864;2023-01-16T17:13:07;2.28;;;0.90;;
71353;SDS011;59393;51.652;4.864;2023-01-16T17:15:34;1.10;;;0.47;;
71353;SDS011;59393;51.652;4.864;2023-01-16T17:18:00;2.08;;;0.68;;
71353;SDS011;59393;51.652;4.864;2023-01-16T17:20:26;3.20;;;1.20;;
71353;SDS011;59393;51.652;4.864;2023-01-16T17:22:52;3.83;;;1.10;;
71353;SDS011;59393;51.652;4.864;2023-01-16T17:25:19;2.08;;;0.80;;
71353;SDS011;59393;51.652;4.864;2023-01-16T17:27:48;5.15;;;1.00;;
71353;SDS011;59393;51.652;4.864;2023-01-16T17:30:15;2.30;;;0.85;;
71353;SDS011;59393;51.652;4.864;2023-01-16T17:32:41;1.83;;;0.70;;
71353;SDS011;59393;51.652;4.864;2023-01-16T17:35:16;3.95;;;1.27;;
71353;SDS011;59393;51.652;4.864;2023-01-16T17:37:42;1.90;;;0.70;;
71353;SDS011;59393;51.652;4.864;2023-01-16T17:40:09;4.22;;;1.25;;